Nissos Mykonos — SYJZ — position and weather

sailwx.info

Track history (hours):
 
Tides and Currents Weather Stations Pressure Air Temp Water Temp Dewpoint Dewpoint Depression Visibility Wind Speed Wind Dir Waves Ship Positions

Nissos Mykonos

Last reported at 2018-Jun-19 09:05 UTC. Time now 2018-Jun-19 16:22 UTC.
Position N 37°33' E 025°35'.

Length 141 m; draft 5.2 m.

Type: Passenger vessel. MMSI: 240389000.

Date/timePositionNaut miles runAvg speedWind from/ knotsBaromVisibWave heightAir tempDewpointWater temp
2018-Jun-19 09:05N 37°33' E 025°35'226.5
2018-Jun-19 09:00N 37°33' E 025°32'1224.1
2018-Jun-19 08:30N 37°29' E 025°18'2 4.5
2018-Jun-19 08:00N 37°29' E 025°15'1425.2
2018-Jun-19 07:28N 37°31' E 024°58'5725.0
2018-Jun-19 05:12N 37°39' E 023°47'524.4
2018-Jun-19 05:01N 37°41' E 023°42'1325.5
2018-Jun-19 04:31N 37°53' E 023°37'4 7.1
2018-Jun-19 04:01N 37°57' E 023°38'0 0.0
2018-Jun-19 03:30N 37°57' E 023°38'0 0.0
2018-Jun-19 03:00N 37°57' E 023°38'0 0.0
2018-Jun-19 02:31N 37°57' E 023°38'0 0.0
2018-Jun-19 02:01N 37°57' E 023°38'0 0.0
2018-Jun-19 01:31N 37°57' E 023°38'0 0.0
2018-Jun-19 01:00N 37°57' E 023°38'0 0.0
2018-Jun-19 00:31N 37°57' E 023°38'0 0.0
2018-Jun-19 00:01N 37°57' E 023°38'0 0.0
2018-Jun-18 23:31N 37°57' E 023°38'0 0.0
2018-Jun-18 23:01N 37°57' E 023°38'0 0.0
2018-Jun-18 22:31N 37°57' E 023°38'0 0.0
2018-Jun-18 22:01N 37°57' E 023°38'0 0.0
2018-Jun-18 21:30N 37°57' E 023°38'0 0.0
2018-Jun-18 21:01N 37°57' E 023°38'510.6
2018-Jun-18 20:31N 37°51' E 023°39'5523.8
2018-Jun-18 18:12N 37°31' E 024°44'526.1
2018-Jun-18 18:00N 37°31' E 024°50'710.2
2018-Jun-18 17:17N 37°26' E 024°57'725.9
2018-Jun-18 17:01N 37°27' E 025°06'1121.0
2018-Jun-18 16:30N 37°28' E 025°19'5 9.3
2018-Jun-18 15:58N 37°31' E 025°25'1225.5
2018-Jun-18 15:30N 37°34' E 025°39'3 0.6
2018-Jun-18 09:51N 37°33' E 025°35'1425.7
2018-Jun-18 09:19N 37°30' E 025°18'2 7.2
2018-Jun-18 09:00N 37°28' E 025°19'1020.9
2018-Jun-18 08:31N 37°27' E 025°06'711.0
2018-Jun-18 07:50N 37°26' E 024°57'720.9
2018-Jun-18 07:30N 37°31' E 024°51'5225.4
2018-Jun-18 05:27N 37°39' E 023°46'1125.0
2018-Jun-18 05:01N 37°48' E 023°38'816.6
2018-Jun-18 04:30N 37°57' E 023°38'0 0.0
2018-Jun-18 04:00N 37°57' E 023°38'0 0.0
2018-Jun-18 03:30N 37°57' E 023°38'0 0.0
2018-Jun-18 03:00N 37°57' E 023°38'0 0.0
2018-Jun-18 02:30N 37°57' E 023°38'0 0.0
2018-Jun-18 02:00N 37°57' E 023°38'0 0.0
2018-Jun-18 01:30N 37°57' E 023°38'0 0.0
2018-Jun-18 01:00N 37°57' E 023°38'0 0.0
2018-Jun-18 00:30N 37°57' E 023°38'0 0.0
2018-Jun-18 00:00N 37°57' E 023°38'0 0.0
2018-Jun-17 23:30N 37°57' E 023°38'0 0.0
2018-Jun-17 23:00N 37°57' E 023°38'0 0.0
2018-Jun-17 22:30N 37°57' E 023°38'0 0.0
2018-Jun-17 22:00N 37°57' E 023°38'0 0.0
2018-Jun-17 21:30N 37°57' E 023°38'0 0.0
2018-Jun-17 21:00N 37°57' E 023°38'612.3
2018-Jun-17 20:31N 37°51' E 023°40'5423.6
2018-Jun-17 18:12N 37°31' E 024°44'526.0
2018-Jun-17 18:01N 37°31' E 024°50'710.5
2018-Jun-17 17:18N 37°26' E 024°57'725.2
2018-Jun-17 17:01N 37°27' E 025°06'1020.8
2018-Jun-17 16:30N 37°28' E 025°19'510.9
2018-Jun-17 16:01N 37°31' E 025°25'1325.3
2018-Jun-17 15:29N 37°34' E 025°41'4 0.7
2018-Jun-17 09:55N 37°33' E 025°36'1425.7
2018-Jun-17 09:21N 37°30' E 025°18'2 6.9
2018-Jun-17 09:00N 37°28' E 025°19'1121.1
2018-Jun-17 08:30N 37°27' E 025°06'711.3
2018-Jun-17 07:52N 37°26' E 024°57'720.6
2018-Jun-17 07:30N 37°31' E 024°51'5125.2
2018-Jun-17 05:29N 37°39' E 023°47'1224.5
2018-Jun-17 05:01N 37°48' E 023°38'816.6
2018-Jun-17 04:30N 37°57' E 023°38'0 0.0
2018-Jun-17 04:00N 37°57' E 023°38'0 0.0
2018-Jun-17 03:30N 37°57' E 023°38'0 0.0
2018-Jun-17 03:00N 37°57' E 023°38'0 0.0
2018-Jun-17 02:30N 37°57' E 023°38'0 0.0
2018-Jun-17 02:00N 37°57' E 023°38'0 0.0
2018-Jun-17 01:30N 37°57' E 023°38'0 0.0
2018-Jun-17 01:00N 37°57' E 023°38'0 0.0
2018-Jun-17 00:30N 37°57' E 023°38'0 0.0
2018-Jun-17 00:00N 37°57' E 023°38'0 0.0
2018-Jun-16 23:30N 37°57' E 023°38'0 0.0
2018-Jun-16 23:00N 37°57' E 023°38'0 0.0
2018-Jun-16 22:30N 37°57' E 023°38'0 0.0
2018-Jun-16 22:00N 37°57' E 023°38'0 0.0
2018-Jun-16 21:30N 37°57' E 023°38'0 0.0
2018-Jun-16 21:00N 37°57' E 023°38'713.8
2018-Jun-16 20:31N 37°50' E 023°40'5423.8
2018-Jun-16 18:15N 37°31' E 024°44'625.8
2018-Jun-16 18:00N 37°31' E 024°51'711.4
2018-Jun-16 17:25N 37°26' E 024°57'1025.4
2018-Jun-16 17:01N 37°27' E 025°10'713.8
2018-Jun-16 16:31N 37°28' E 025°19'1121.6
2018-Jun-16 16:01N 37°32' E 025°31'1424.7
2018-Jun-16 15:27N 37°35' E 025°48'11 1.9
2018-Jun-16 09:53N 37°33' E 025°35'1326.0
2018-Jun-16 09:22N 37°30' E 025°18'2 6.5
2018-Jun-16 09:01N 37°28' E 025°19'1121.6
2018-Jun-16 08:31N 37°27' E 025°06'711.6
2018-Jun-16 07:54N 37°26' E 024°57'820.2
2018-Jun-16 07:31N 37°31' E 024°50'5025.0
2018-Jun-16 05:31N 37°39' E 023°47'025.0
2018-Jun-16 05:30N 37°39' E 023°47'1224.3
2018-Jun-16 05:01N 37°49' E 023°38'815.5
2018-Jun-16 04:30N 37°57' E 023°38'0 0.0
2018-Jun-16 04:00N 37°57' E 023°38'0 0.0
2018-Jun-16 03:30N 37°57' E 023°38'0 0.0
2018-Jun-16 03:00N 37°57' E 023°38'0 0.0
2018-Jun-16 02:30N 37°57' E 023°38'0 0.0
2018-Jun-16 01:58N 37°57' E 023°38'0 0.0
2018-Jun-16 01:30N 37°57' E 023°38'0 0.0
2018-Jun-16 01:00N 37°57' E 023°38'0 0.0
2018-Jun-16 00:30N 37°57' E 023°38'0 0.0
2018-Jun-16 00:00N 37°57' E 023°38'0 0.0
2018-Jun-15 23:30N 37°57' E 023°38'0 0.0
2018-Jun-15 23:00N 37°57' E 023°38'0 0.0
2018-Jun-15 22:30N 37°57' E 023°38'0 0.0
2018-Jun-15 22:00N 37°57' E 023°38'0 0.0
2018-Jun-15 21:31N 37°57' E 023°38'1 1.7
2018-Jun-15 21:00N 37°56' E 023°37'1019.8
2018-Jun-15 20:31N 37°47' E 023°42'5223.7
2018-Jun-15 18:20N 37°31' E 024°44'1024.7
2018-Jun-15 17:55N 37°30' E 024°57'4 8.9
2018-Jun-15 17:30N 37°26' E 024°57'1225.2
2018-Jun-15 17:01N 37°27' E 025°13'5 9.5
2018-Jun-15 16:30N 37°29' E 025°18'1324.3
2018-Jun-15 15:57N 37°33' E 025°34'1325.0
2018-Jun-15 15:26N 37°36' E 025°50'11 2.1
2018-Jun-15 10:01N 37°33' E 025°36'025.6
2018-Jun-15 10:00N 37°33' E 025°36'1525.5
2018-Jun-15 09:26N 37°29' E 025°18'2 4.1
2018-Jun-15 09:01N 37°28' E 025°19'1224.3
2018-Jun-15 08:30N 37°27' E 025°04'5 9.6
2018-Jun-15 07:58N 37°26' E 024°57'920.6
2018-Jun-15 07:31N 37°32' E 024°48'4724.6
2018-Jun-15 05:37N 37°39' E 023°49'325.3
2018-Jun-15 05:30N 37°39' E 023°46'1224.0
2018-Jun-15 05:01N 37°49' E 023°38'714.5
2018-Jun-15 04:30N 37°57' E 023°38'0 0.0
2018-Jun-15 04:00N 37°57' E 023°38'0 0.0
2018-Jun-15 03:30N 37°57' E 023°38'0 0.0
2018-Jun-15 03:00N 37°57' E 023°38'0 0.0
2018-Jun-15 02:30N 37°57' E 023°38'0 0.0
2018-Jun-15 02:00N 37°57' E 023°38'0 0.0
2018-Jun-15 01:30N 37°57' E 023°38'0 0.0
2018-Jun-15 01:00N 37°57' E 023°38'0 0.0
2018-Jun-15 00:30N 37°57' E 023°38'0 0.0
2018-Jun-15 00:00N 37°57' E 023°38'0 0.0
2018-Jun-14 23:30N 37°57' E 023°38'0 0.0
2018-Jun-14 23:00N 37°57' E 023°38'0 0.0
2018-Jun-14 22:30N 37°57' E 023°38'0 0.0
2018-Jun-14 22:00N 37°57' E 023°38'0 0.0
2018-Jun-14 21:30N 37°57' E 023°38'0 0.7
2018-Jun-14 21:00N 37°56' E 023°38'917.6
2018-Jun-14 20:31N 37°48' E 023°41'5223.8
2018-Jun-14 18:19N 37°31' E 024°44'1025.1
2018-Jun-14 17:56N 37°30' E 024°56'4 9.6
2018-Jun-14 17:28N 37°26' E 024°57'1225.4
2018-Jun-14 17:00N 37°27' E 025°12'510.3
2018-Jun-14 16:30N 37°29' E 025°18'1224.0
2018-Jun-14 16:00N 37°33' E 025°32'1525.0
2018-Jun-14 15:24N 37°36' E 025°51'12 2.2
2018-Jun-14 09:52N 37°33' E 025°36'1524.8
2018-Jun-14 09:16N 37°28' E 025°18'1 4.4
2018-Jun-14 09:00N 37°28' E 025°19'1121.5
2018-Jun-14 08:30N 37°27' E 025°06'711.8
2018-Jun-14 07:54N 37°26' E 024°57'819.7
2018-Jun-14 07:31N 37°31' E 024°50'5524.9
2018-Jun-14 05:18N 37°42' E 023°42'725.5
2018-Jun-14 05:00N 37°49' E 023°38'8 3.2
2018-Jun-14 02:35N 37°56' E 023°38'111.0
2018-Jun-14 02:31N 37°56' E 023°37'1019.5
2018-Jun-14 02:00N 37°47' E 023°42'5223.9
2018-Jun-13 23:51N 37°31' E 024°44'925.4
2018-Jun-13 23:29N 37°31' E 024°56'1225.4
2018-Jun-13 23:00N 37°31' E 025°11'1325.1
2018-Jun-13 22:30N 37°32' E 025°27'1325.0
2018-Jun-13 22:00N 37°35' E 025°42'14710.2
2018-Jun-13 07:33N 39°58' E 024°58'525.2
2018-Jun-13 07:21N 40°02' E 024°55'1024.9
2018-Jun-13 06:57N 40°11' E 024°49'1125.4
2018-Jun-13 06:30N 40°21' E 024°41'1325.7
2018-Jun-13 06:01N 40°32' E 024°33'1325.4
2018-Jun-13 05:30N 40°44' E 024°27'1224.3
2018-Jun-13 05:00N 40°56' E 024°24'0 0.5
2018-Jun-13 04:30N 40°56' E 024°25'0 0.0
2018-Jun-13 04:00N 40°56' E 024°25'0 0.0
2018-Jun-13 03:30N 40°56' E 024°25'0 0.0
2018-Jun-13 02:59N 40°56' E 024°25'0 0.7
2018-Jun-13 02:30N 40°56' E 024°24'1224.5
2018-Jun-13 02:01N 40°44' E 024°27'1325.2
2018-Jun-13 01:31N 40°32' E 024°32'1325.1
2018-Jun-13 01:00N 40°21' E 024°40'1525.7
2018-Jun-13 00:26N 40°08' E 024°50'1925.3
2018-Jun-12 23:42N 39°52' E 025°03'0 0.1
2018-Jun-12 23:15N 39°52' E 025°03'14110.0
2018-Jun-12 09:13N 37°34' E 025°38'525.7
2018-Jun-12 09:00N 37°33' E 025°31'1121.0
2018-Jun-12 08:29N 37°28' E 025°19'3 6.3
2018-Jun-12 08:00N 37°29' E 025°15'1425.1
2018-Jun-12 07:28N 37°31' E 024°58'1125.0
2018-Jun-12 07:01N 37°31' E 024°44'4425.0
2018-Jun-12 05:15N 37°38' E 023°49'625.0
2018-Jun-12 05:01N 37°41' E 023°42'1325.6
2018-Jun-12 04:31N 37°53' E 023°37'4 7.8
2018-Jun-12 04:00N 37°57' E 023°38'0 0.0
2018-Jun-12 03:30N 37°57' E 023°38'0 0.0
2018-Jun-12 03:00N 37°57' E 023°38'0 0.0
2018-Jun-12 02:30N 37°57' E 023°38'0 0.0
2018-Jun-12 02:00N 37°57' E 023°38'0 0.0
2018-Jun-12 01:30N 37°57' E 023°38'0 0.0
2018-Jun-12 01:00N 37°57' E 023°38'0 0.0
2018-Jun-12 00:30N 37°57' E 023°38'0 0.0
2018-Jun-12 00:00N 37°57' E 023°38'0 0.0
2018-Jun-11 23:30N 37°57' E 023°38'0 0.0
2018-Jun-11 23:00N 37°57' E 023°38'0 0.0
2018-Jun-11 22:30N 37°57' E 023°38'0 0.0
2018-Jun-11 22:00N 37°57' E 023°38'0 0.0
2018-Jun-11 21:30N 37°57' E 023°38'0 0.0
2018-Jun-11 21:00N 37°57' E 023°38'612.5
2018-Jun-11 20:30N 37°51' E 023°40'5423.8
2018-Jun-11 18:14N 37°31' E 024°44'626.1
2018-Jun-11 18:00N 37°31' E 024°51'712.2
2018-Jun-11 17:26N 37°26' E 024°57'1125.8
2018-Jun-11 17:01N 37°28' E 025°11'713.7
2018-Jun-11 16:31N 37°28' E 025°19'918.0
2018-Jun-11 16:01N 37°35' E 025°27'1324.6
2018-Jun-11 15:30N 37°35' E 025°43'9 1.6
2018-Jun-11 09:51N 37°35' E 025°31'1224.6
2018-Jun-11 09:22N 37°29' E 025°18'2 5.0
2018-Jun-11 09:00N 37°28' E 025°19'1522.5
2018-Jun-11 08:20N 37°26' E 025°00'3 6.0
2018-Jun-11 07:54N 37°26' E 024°57'821.1
2018-Jun-11 07:31N 37°32' E 024°49'5024.7
2018-Jun-11 05:30N 37°39' E 023°48'1224.7
2018-Jun-11 05:01N 37°48' E 023°38'816.4
2018-Jun-11 04:30N 37°57' E 023°38'0 0.0
2018-Jun-11 04:00N 37°57' E 023°38'0 0.0
2018-Jun-11 03:31N 37°57' E 023°38'0 0.0
2018-Jun-11 03:01N 37°57' E 023°38'0 0.0
2018-Jun-11 02:31N 37°57' E 023°38'0 0.0
2018-Jun-11 02:01N 37°57' E 023°38'0 0.0
2018-Jun-11 01:30N 37°57' E 023°38'0 0.0
2018-Jun-11 01:01N 37°57' E 023°38'0 0.0
2018-Jun-11 00:29N 37°57' E 023°38'0 0.0
2018-Jun-11 00:01N 37°57' E 023°38'0 0.0
2018-Jun-10 23:31N 37°57' E 023°38'0 0.0
2018-Jun-10 23:01N 37°57' E 023°38'0 0.0
2018-Jun-10 22:29N 37°57' E 023°38'0 0.0
2018-Jun-10 22:01N 37°57' E 023°38'0 0.0
2018-Jun-10 21:31N 37°57' E 023°38'0 0.1
2018-Jun-10 21:00N 37°57' E 023°38'714.8
2018-Jun-10 20:31N 37°49' E 023°41'5323.5
2018-Jun-10 18:14N 37°31' E 024°44'625.9
2018-Jun-10 18:00N 37°31' E 024°51'710.5
2018-Jun-10 17:21N 37°26' E 024°57'925.5
2018-Jun-10 17:00N 37°27' E 025°08'917.6
2018-Jun-10 16:30N 37°28' E 025°19'510.6
2018-Jun-10 16:00N 37°31' E 025°25'1225.0
2018-Jun-10 15:31N 37°34' E 025°40'138 8.3
2018-Jun-09 22:53N 39°48' E 025°04'4 4.7
2018-Jun-09 22:03N 39°52' E 025°03'119.4
2018-Jun-09 22:00N 39°53' E 025°02'1224.5
2018-Jun-09 21:31N 40°03' E 024°54'1325.1
2018-Jun-09 21:01N 40°14' E 024°46'1325.4
2018-Jun-09 20:30N 40°25' E 024°37'1325.6
2018-Jun-09 20:01N 40°37' E 024°30'1325.1
2018-Jun-09 19:30N 40°49' E 024°26'714.0
2018-Jun-09 18:59N 40°56' E 024°25'0 0.0
2018-Jun-09 18:28N 40°56' E 024°25'0 0.0
2018-Jun-09 17:55N 40°56' E 024°25'0 0.0
2018-Jun-09 17:27N 40°56' E 024°25'0 0.0
2018-Jun-09 17:00N 40°56' E 024°25'0 0.0
2018-Jun-09 15:51N 40°56' E 024°25'2 5.2
2018-Jun-09 15:31N 40°54' E 024°25'2423.5
2018-Jun-09 14:31N 40°31' E 024°33'1223.5
2018-Jun-09 14:00N 40°21' E 024°40'1223.8
2018-Jun-09 13:30N 40°11' E 024°48'2224.0
2018-Jun-09 12:36N 39°52' E 025°03'0 0.6
2018-Jun-09 12:11N 39°52' E 025°03'315.6
2018-Jun-09 12:01N 39°50' E 025°02'  
Track history (hours):
 
Tides and Currents Weather Stations Pressure Air Temp Water Temp Dewpoint Dewpoint Depression Visibility Wind Speed Wind Dir Waves Ship Positions

Nissos Mykonos

Last reported at 2018-Jun-19 09:05 UTC. Time now 2018-Jun-19 16:22 UTC.
Position N 37°33' E 025°35'.

Length 141 m; draft 5.2 m.

Type: Passenger vessel. MMSI: 240389000.

Date/timePositionNaut miles runAvg speedWind from/ knotsBaromVisibWave heightAir tempDewpointWater temp
2018-Jun-19 09:05N 37°33' E 025°35'226.5
2018-Jun-19 09:00N 37°33' E 025°32'1224.1
2018-Jun-19 08:30N 37°29' E 025°18'2 4.5
2018-Jun-19 08:00N 37°29' E 025°15'1425.2
2018-Jun-19 07:28N 37°31' E 024°58'5725.0
2018-Jun-19 05:12N 37°39' E 023°47'524.4
2018-Jun-19 05:01N 37°41' E 023°42'1325.5
2018-Jun-19 04:31N 37°53' E 023°37'4 7.1
2018-Jun-19 04:01N 37°57' E 023°38'0 0.0
2018-Jun-19 03:30N 37°57' E 023°38'0 0.0
2018-Jun-19 03:00N 37°57' E 023°38'0 0.0
2018-Jun-19 02:31N 37°57' E 023°38'0 0.0
2018-Jun-19 02:01N 37°57' E 023°38'0 0.0
2018-Jun-19 01:31N 37°57' E 023°38'0 0.0
2018-Jun-19 01:00N 37°57' E 023°38'0 0.0
2018-Jun-19 00:31N 37°57' E 023°38'0 0.0
2018-Jun-19 00:01N 37°57' E 023°38'0 0.0
2018-Jun-18 23:31N 37°57' E 023°38'0 0.0
2018-Jun-18 23:01N 37°57' E 023°38'0 0.0
2018-Jun-18 22:31N 37°57' E 023°38'0 0.0
2018-Jun-18 22:01N 37°57' E 023°38'0 0.0
2018-Jun-18 21:30N 37°57' E 023°38'0 0.0
2018-Jun-18 21:01N 37°57' E 023°38'510.6
2018-Jun-18 20:31N 37°51' E 023°39'5523.8
2018-Jun-18 18:12N 37°31' E 024°44'526.1
2018-Jun-18 18:00N 37°31' E 024°50'710.2
2018-Jun-18 17:17N 37°26' E 024°57'725.9
2018-Jun-18 17:01N 37°27' E 025°06'1121.0
2018-Jun-18 16:30N 37°28' E 025°19'5 9.3
2018-Jun-18 15:58N 37°31' E 025°25'1225.5
2018-Jun-18 15:30N 37°34' E 025°39'3 0.6
2018-Jun-18 09:51N 37°33' E 025°35'1425.7
2018-Jun-18 09:19N 37°30' E 025°18'2 7.2
2018-Jun-18 09:00N 37°28' E 025°19'1020.9
2018-Jun-18 08:31N 37°27' E 025°06'711.0
2018-Jun-18 07:50N 37°26' E 024°57'720.9
2018-Jun-18 07:30N 37°31' E 024°51'5225.4
2018-Jun-18 05:27N 37°39' E 023°46'1125.0
2018-Jun-18 05:01N 37°48' E 023°38'816.6
2018-Jun-18 04:30N 37°57' E 023°38'0 0.0
2018-Jun-18 04:00N 37°57' E 023°38'0 0.0
2018-Jun-18 03:30N 37°57' E 023°38'0 0.0
2018-Jun-18 03:00N 37°57' E 023°38'0 0.0
2018-Jun-18 02:30N 37°57' E 023°38'0 0.0
2018-Jun-18 02:00N 37°57' E 023°38'0 0.0
2018-Jun-18 01:30N 37°57' E 023°38'0 0.0
2018-Jun-18 01:00N 37°57' E 023°38'0 0.0
2018-Jun-18 00:30N 37°57' E 023°38'0 0.0
2018-Jun-18 00:00N 37°57' E 023°38'0 0.0
2018-Jun-17 23:30N 37°57' E 023°38'0 0.0
2018-Jun-17 23:00N 37°57' E 023°38'0 0.0
2018-Jun-17 22:30N 37°57' E 023°38'0 0.0
2018-Jun-17 22:00N 37°57' E 023°38'0 0.0
2018-Jun-17 21:30N 37°57' E 023°38'0 0.0
2018-Jun-17 21:00N 37°57' E 023°38'612.3
2018-Jun-17 20:31N 37°51' E 023°40'5423.6
2018-Jun-17 18:12N 37°31' E 024°44'526.0
2018-Jun-17 18:01N 37°31' E 024°50'710.5
2018-Jun-17 17:18N 37°26' E 024°57'725.2
2018-Jun-17 17:01N 37°27' E 025°06'1020.8
2018-Jun-17 16:30N 37°28' E 025°19'510.9
2018-Jun-17 16:01N 37°31' E 025°25'1325.3
2018-Jun-17 15:29N 37°34' E 025°41'4 0.7
2018-Jun-17 09:55N 37°33' E 025°36'1425.7
2018-Jun-17 09:21N 37°30' E 025°18'2 6.9
2018-Jun-17 09:00N 37°28' E 025°19'1121.1
2018-Jun-17 08:30N 37°27' E 025°06'711.3
2018-Jun-17 07:52N 37°26' E 024°57'720.6
2018-Jun-17 07:30N 37°31' E 024°51'5125.2
2018-Jun-17 05:29N 37°39' E 023°47'1224.5
2018-Jun-17 05:01N 37°48' E 023°38'816.6
2018-Jun-17 04:30N 37°57' E 023°38'0 0.0
2018-Jun-17 04:00N 37°57' E 023°38'0 0.0
2018-Jun-17 03:30N 37°57' E 023°38'0 0.0
2018-Jun-17 03:00N 37°57' E 023°38'0 0.0
2018-Jun-17 02:30N 37°57' E 023°38'0 0.0
2018-Jun-17 02:00N 37°57' E 023°38'0 0.0
2018-Jun-17 01:30N 37°57' E 023°38'0 0.0
2018-Jun-17 01:00N 37°57' E 023°38'0 0.0
2018-Jun-17 00:30N 37°57' E 023°38'0 0.0
2018-Jun-17 00:00N 37°57' E 023°38'0 0.0
2018-Jun-16 23:30N 37°57' E 023°38'0 0.0
2018-Jun-16 23:00N 37°57' E 023°38'0 0.0
2018-Jun-16 22:30N 37°57' E 023°38'0 0.0
2018-Jun-16 22:00N 37°57' E 023°38'0 0.0
2018-Jun-16 21:30N 37°57' E 023°38'0 0.0
2018-Jun-16 21:00N 37°57' E 023°38'713.8
2018-Jun-16 20:31N 37°50' E 023°40'5423.8
2018-Jun-16 18:15N 37°31' E 024°44'625.8
2018-Jun-16 18:00N 37°31' E 024°51'711.4
2018-Jun-16 17:25N 37°26' E 024°57'1025.4
2018-Jun-16 17:01N 37°27' E 025°10'713.8
2018-Jun-16 16:31N 37°28' E 025°19'1121.6
2018-Jun-16 16:01N 37°32' E 025°31'1424.7
2018-Jun-16 15:27N 37°35' E 025°48'11 1.9
2018-Jun-16 09:53N 37°33' E 025°35'1326.0
2018-Jun-16 09:22N 37°30' E 025°18'2 6.5
2018-Jun-16 09:01N 37°28' E 025°19'1121.6
2018-Jun-16 08:31N 37°27' E 025°06'711.6
2018-Jun-16 07:54N 37°26' E 024°57'820.2
2018-Jun-16 07:31N 37°31' E 024°50'5025.0
2018-Jun-16 05:31N 37°39' E 023°47'025.0
2018-Jun-16 05:30N 37°39' E 023°47'1224.3
2018-Jun-16 05:01N 37°49' E 023°38'815.5
2018-Jun-16 04:30N 37°57' E 023°38'0 0.0
2018-Jun-16 04:00N 37°57' E 023°38'0 0.0
2018-Jun-16 03:30N 37°57' E 023°38'0 0.0
2018-Jun-16 03:00N 37°57' E 023°38'0 0.0
2018-Jun-16 02:30N 37°57' E 023°38'0 0.0
2018-Jun-16 01:58N 37°57' E 023°38'0 0.0
2018-Jun-16 01:30N 37°57' E 023°38'0 0.0
2018-Jun-16 01:00N 37°57' E 023°38'0 0.0
2018-Jun-16 00:30N 37°57' E 023°38'0 0.0
2018-Jun-16 00:00N 37°57' E 023°38'0 0.0
2018-Jun-15 23:30N 37°57' E 023°38'0 0.0
2018-Jun-15 23:00N 37°57' E 023°38'0 0.0
2018-Jun-15 22:30N 37°57' E 023°38'0 0.0
2018-Jun-15 22:00N 37°57' E 023°38'0 0.0
2018-Jun-15 21:31N 37°57' E 023°38'1 1.7
2018-Jun-15 21:00N 37°56' E 023°37'1019.8
2018-Jun-15 20:31N 37°47' E 023°42'5223.7
2018-Jun-15 18:20N 37°31' E 024°44'1024.7
2018-Jun-15 17:55N 37°30' E 024°57'4 8.9
2018-Jun-15 17:30N 37°26' E 024°57'1225.2
2018-Jun-15 17:01N 37°27' E 025°13'5 9.5
2018-Jun-15 16:30N 37°29' E 025°18'1324.3
2018-Jun-15 15:57N 37°33' E 025°34'1325.0
2018-Jun-15 15:26N 37°36' E 025°50'11 2.1
2018-Jun-15 10:01N 37°33' E 025°36'025.6
2018-Jun-15 10:00N 37°33' E 025°36'1525.5
2018-Jun-15 09:26N 37°29' E 025°18'2 4.1
2018-Jun-15 09:01N 37°28' E 025°19'1224.3
2018-Jun-15 08:30N 37°27' E 025°04'5 9.6
2018-Jun-15 07:58N 37°26' E 024°57'920.6
2018-Jun-15 07:31N 37°32' E 024°48'4724.6
2018-Jun-15 05:37N 37°39' E 023°49'325.3
2018-Jun-15 05:30N 37°39' E 023°46'1224.0
2018-Jun-15 05:01N 37°49' E 023°38'714.5
2018-Jun-15 04:30N 37°57' E 023°38'0 0.0
2018-Jun-15 04:00N 37°57' E 023°38'0 0.0
2018-Jun-15 03:30N 37°57' E 023°38'0 0.0
2018-Jun-15 03:00N 37°57' E 023°38'0 0.0
2018-Jun-15 02:30N 37°57' E 023°38'0 0.0
2018-Jun-15 02:00N 37°57' E 023°38'0 0.0
2018-Jun-15 01:30N 37°57' E 023°38'0 0.0
2018-Jun-15 01:00N 37°57' E 023°38'0 0.0
2018-Jun-15 00:30N 37°57' E 023°38'0 0.0
2018-Jun-15 00:00N 37°57' E 023°38'0 0.0
2018-Jun-14 23:30N 37°57' E 023°38'0 0.0
2018-Jun-14 23:00N 37°57' E 023°38'0 0.0
2018-Jun-14 22:30N 37°57' E 023°38'0 0.0
2018-Jun-14 22:00N 37°57' E 023°38'0 0.0
2018-Jun-14 21:30N 37°57' E 023°38'0 0.7
2018-Jun-14 21:00N 37°56' E 023°38'917.6
2018-Jun-14 20:31N 37°48' E 023°41'5223.8
2018-Jun-14 18:19N 37°31' E 024°44'1025.1
2018-Jun-14 17:56N 37°30' E 024°56'4 9.6
2018-Jun-14 17:28N 37°26' E 024°57'1225.4
2018-Jun-14 17:00N 37°27' E 025°12'510.3
2018-Jun-14 16:30N 37°29' E 025°18'1224.0
2018-Jun-14 16:00N 37°33' E 025°32'1525.0
2018-Jun-14 15:24N 37°36' E 025°51'12 2.2
2018-Jun-14 09:52N 37°33' E 025°36'1524.8
2018-Jun-14 09:16N 37°28' E 025°18'1 4.4
2018-Jun-14 09:00N 37°28' E 025°19'1121.5
2018-Jun-14 08:30N 37°27' E 025°06'711.8
2018-Jun-14 07:54N 37°26' E 024°57'819.7
2018-Jun-14 07:31N 37°31' E 024°50'5524.9
2018-Jun-14 05:18N 37°42' E 023°42'725.5
2018-Jun-14 05:00N 37°49' E 023°38'8 3.2
2018-Jun-14 02:35N 37°56' E 023°38'111.0
2018-Jun-14 02:31N 37°56' E 023°37'1019.5
2018-Jun-14 02:00N 37°47' E 023°42'5223.9
2018-Jun-13 23:51N 37°31' E 024°44'925.4
2018-Jun-13 23:29N 37°31' E 024°56'1225.4
2018-Jun-13 23:00N 37°31' E 025°11'1325.1
2018-Jun-13 22:30N 37°32' E 025°27'1325.0
2018-Jun-13 22:00N 37°35' E 025°42'14710.2
2018-Jun-13 07:33N 39°58' E 024°58'525.2
2018-Jun-13 07:21N 40°02' E 024°55'1024.9
2018-Jun-13 06:57N 40°11' E 024°49'1125.4
2018-Jun-13 06:30N 40°21' E 024°41'1325.7
2018-Jun-13 06:01N 40°32' E 024°33'1325.4
2018-Jun-13 05:30N 40°44' E 024°27'1224.3
2018-Jun-13 05:00N 40°56' E 024°24'0 0.5
2018-Jun-13 04:30N 40°56' E 024°25'0 0.0
2018-Jun-13 04:00N 40°56' E 024°25'0 0.0
2018-Jun-13 03:30N 40°56' E 024°25'0 0.0
2018-Jun-13 02:59N 40°56' E 024°25'0 0.7
2018-Jun-13 02:30N 40°56' E 024°24'1224.5
2018-Jun-13 02:01N 40°44' E 024°27'1325.2
2018-Jun-13 01:31N 40°32' E 024°32'1325.1
2018-Jun-13 01:00N 40°21' E 024°40'1525.7
2018-Jun-13 00:26N 40°08' E 024°50'1925.3
2018-Jun-12 23:42N 39°52' E 025°03'0 0.1
2018-Jun-12 23:15N 39°52' E 025°03'14110.0
2018-Jun-12 09:13N 37°34' E 025°38'525.7
2018-Jun-12 09:00N 37°33' E 025°31'1121.0
2018-Jun-12 08:29N 37°28' E 025°19'3 6.3
2018-Jun-12 08:00N 37°29' E 025°15'1425.1
2018-Jun-12 07:28N 37°31' E 024°58'1125.0
2018-Jun-12 07:01N 37°31' E 024°44'4425.0
2018-Jun-12 05:15N 37°38' E 023°49'625.0
2018-Jun-12 05:01N 37°41' E 023°42'1325.6
2018-Jun-12 04:31N 37°53' E 023°37'4 7.8
2018-Jun-12 04:00N 37°57' E 023°38'0 0.0
2018-Jun-12 03:30N 37°57' E 023°38'0 0.0
2018-Jun-12 03:00N 37°57' E 023°38'0 0.0
2018-Jun-12 02:30N 37°57' E 023°38'0 0.0
2018-Jun-12 02:00N 37°57' E 023°38'0 0.0
2018-Jun-12 01:30N 37°57' E 023°38'0 0.0
2018-Jun-12 01:00N 37°57' E 023°38'0 0.0
2018-Jun-12 00:30N 37°57' E 023°38'0 0.0
2018-Jun-12 00:00N 37°57' E 023°38'0 0.0
2018-Jun-11 23:30N 37°57' E 023°38'0 0.0
2018-Jun-11 23:00N 37°57' E 023°38'0 0.0
2018-Jun-11 22:30N 37°57' E 023°38'0 0.0
2018-Jun-11 22:00N 37°57' E 023°38'0 0.0
2018-Jun-11 21:30N 37°57' E 023°38'0 0.0
2018-Jun-11 21:00N 37°57' E 023°38'612.5
2018-Jun-11 20:30N 37°51' E 023°40'5423.8
2018-Jun-11 18:14N 37°31' E 024°44'626.1
2018-Jun-11 18:00N 37°31' E 024°51'712.2
2018-Jun-11 17:26N 37°26' E 024°57'1125.8
2018-Jun-11 17:01N 37°28' E 025°11'713.7
2018-Jun-11 16:31N 37°28' E 025°19'918.0
2018-Jun-11 16:01N 37°35' E 025°27'1324.6
2018-Jun-11 15:30N 37°35' E 025°43'9 1.6
2018-Jun-11 09:51N 37°35' E 025°31'1224.6
2018-Jun-11 09:22N 37°29' E 025°18'2 5.0
2018-Jun-11 09:00N 37°28' E 025°19'1522.5
2018-Jun-11 08:20N 37°26' E 025°00'3 6.0
2018-Jun-11 07:54N 37°26' E 024°57'821.1
2018-Jun-11 07:31N 37°32' E 024°49'5024.7
2018-Jun-11 05:30N 37°39' E 023°48'1224.7
2018-Jun-11 05:01N 37°48' E 023°38'816.4
2018-Jun-11 04:30N 37°57' E 023°38'0 0.0
2018-Jun-11 04:00N 37°57' E 023°38'0 0.0
2018-Jun-11 03:31N 37°57' E 023°38'0 0.0
2018-Jun-11 03:01N 37°57' E 023°38'0 0.0
2018-Jun-11 02:31N 37°57' E 023°38'0 0.0
2018-Jun-11 02:01N 37°57' E 023°38'0 0.0
2018-Jun-11 01:30N 37°57' E 023°38'0 0.0
2018-Jun-11 01:01N 37°57' E 023°38'0 0.0
2018-Jun-11 00:29N 37°57' E 023°38'0 0.0
2018-Jun-11 00:01N 37°57' E 023°38'0 0.0
2018-Jun-10 23:31N 37°57' E 023°38'0 0.0
2018-Jun-10 23:01N 37°57' E 023°38'0 0.0
2018-Jun-10 22:29N 37°57' E 023°38'0 0.0
2018-Jun-10 22:01N 37°57' E 023°38'0 0.0
2018-Jun-10 21:31N 37°57' E 023°38'0 0.1
2018-Jun-10 21:00N 37°57' E 023°38'714.8
2018-Jun-10 20:31N 37°49' E 023°41'5323.5
2018-Jun-10 18:14N 37°31' E 024°44'625.9
2018-Jun-10 18:00N 37°31' E 024°51'710.5
2018-Jun-10 17:21N 37°26' E 024°57'925.5
2018-Jun-10 17:00N 37°27' E 025°08'917.6
2018-Jun-10 16:30N 37°28' E 025°19'510.6
2018-Jun-10 16:00N 37°31' E 025°25'1225.0
2018-Jun-10 15:31N 37°34' E 025°40'138 8.3
2018-Jun-09 22:53N 39°48' E 025°04'4 4.7
2018-Jun-09 22:03N 39°52' E 025°03'119.4
2018-Jun-09 22:00N 39°53' E 025°02'1224.5
2018-Jun-09 21:31N 40°03' E 024°54'1325.1
2018-Jun-09 21:01N 40°14' E 024°46'1325.4
2018-Jun-09 20:30N 40°25' E 024°37'1325.6
2018-Jun-09 20:01N 40°37' E 024°30'1325.1
2018-Jun-09 19:30N 40°49' E 024°26'714.0
2018-Jun-09 18:59N 40°56' E 024°25'0 0.0
2018-Jun-09 18:28N 40°56' E 024°25'0 0.0
2018-Jun-09 17:55N 40°56' E 024°25'0 0.0
2018-Jun-09 17:27N 40°56' E 024°25'0 0.0
2018-Jun-09 17:00N 40°56' E 024°25'0 0.0
2018-Jun-09 15:51N 40°56' E 024°25'2 5.2
2018-Jun-09 15:31N 40°54' E 024°25'2423.5
2018-Jun-09 14:31N 40°31' E 024°33'1223.5
2018-Jun-09 14:00N 40°21' E 024°40'1223.8
2018-Jun-09 13:30N 40°11' E 024°48'2224.0
2018-Jun-09 12:36N 39°52' E 025°03'0 0.6
2018-Jun-09 12:11N 39°52' E 025°03'315.6
2018-Jun-09 12:01N 39°50' E 025°02'  

Dump ship's entire track history